createdAt,value
2022-09-09T00:00:44.435Z,50.866894
2022-09-09T00:01:44.437Z,50.866756
2022-09-09T00:02:44.514Z,50.866829
2022-09-09T00:03:44.558Z,50.866684
2022-09-09T00:04:44.409Z,50.866714
2022-09-09T00:05:44.417Z,50.866703
2022-09-09T00:06:44.394Z,50.866623
2022-09-09T00:07:44.390Z,50.866879
2022-09-09T00:08:44.387Z,50.866749
2022-09-09T00:09:44.375Z,50.866520
2022-09-09T00:10:44.366Z,50.866596
2022-09-09T00:11:44.355Z,50.866817
2022-09-09T00:12:44.350Z,50.866730
2022-09-09T00:13:44.333Z,50.866772
2022-09-09T00:14:44.326Z,50.866684
2022-09-09T00:15:44.382Z,50.866646
2022-09-09T00:16:44.332Z,50.866737
2022-09-09T00:17:44.318Z,50.866821
2022-09-09T00:18:44.302Z,50.866810
2022-09-09T00:19:44.287Z,50.866776
2022-09-09T00:20:44.277Z,50.866886
2022-09-09T00:21:44.270Z,50.866848
2022-09-09T00:22:44.260Z,50.866695
2022-09-09T00:23:44.261Z,50.866707
2022-09-09T00:24:44.240Z,50.866722
2022-09-09T00:25:44.262Z,50.866726
2022-09-09T00:26:44.234Z,50.866745
2022-09-09T00:27:44.228Z,50.866764
2022-09-09T00:28:44.220Z,50.866810
2022-09-09T00:29:44.207Z,50.866776
2022-09-09T00:39:36.797Z,50.866776
2022-09-09T00:40:36.752Z,50.866657
2022-09-09T00:41:36.747Z,50.866692
2022-09-09T00:42:36.730Z,50.866642
2022-09-09T00:43:36.722Z,50.866623
2022-09-09T00:44:36.715Z,50.866642
2022-09-09T00:45:36.709Z,50.866650
2022-09-09T00:46:36.785Z,50.866653
2022-09-09T00:47:36.692Z,50.866676
2022-09-09T00:48:36.685Z,50.866634
2022-09-09T00:49:36.689Z,50.866661
2022-09-09T00:50:36.665Z,50.866634
2022-09-09T00:51:36.672Z,50.866638
2022-09-09T00:52:36.654Z,50.866718
2022-09-09T00:53:36.646Z,50.866692
2022-09-09T00:54:36.643Z,50.866734
2022-09-09T00:55:36.634Z,50.866756
2022-09-09T00:56:36.627Z,50.866760
2022-09-09T00:57:36.617Z,50.866734
2022-09-09T00:58:36.754Z,50.866718
2022-09-09T00:59:36.606Z,50.866692
2022-09-09T01:00:36.596Z,50.866749
2022-09-09T01:01:36.636Z,50.866734
2022-09-09T01:02:36.652Z,50.866714
2022-09-09T01:03:36.570Z,50.866684
2022-09-09T01:04:36.569Z,50.866707
2022-09-09T01:05:36.551Z,50.866722
2022-09-09T01:06:37.173Z,50.866753
2022-09-09T01:07:36.542Z,50.866768
2022-09-09T01:08:36.664Z,50.866764
2022-09-09T01:09:36.532Z,50.866802
2022-09-09T01:10:36.515Z,50.866745
2022-09-09T01:11:36.516Z,50.866745
2022-09-09T01:12:36.499Z,50.866737
2022-09-09T01:13:36.495Z,50.866745
2022-09-09T01:14:36.499Z,50.866779
2022-09-09T01:15:36.482Z,50.866680
2022-09-09T01:16:36.512Z,50.866768
2022-09-09T01:17:36.460Z,50.866745
2022-09-09T01:18:36.657Z,50.866623
2022-09-09T01:19:36.444Z,50.866642
2022-09-09T01:20:36.451Z,50.866665
2022-09-09T01:21:36.433Z,50.866688
2022-09-09T01:22:36.425Z,50.866714
2022-09-09T01:23:36.416Z,50.866734
2022-09-09T01:24:36.414Z,50.866684
2022-09-09T01:25:36.405Z,50.866673
2022-09-09T01:26:36.388Z,50.866741
2022-09-09T01:27:36.381Z,50.866749
2022-09-09T01:28:36.536Z,50.866745
2022-09-09T01:29:36.374Z,50.866753
2022-09-09T01:30:36.447Z,50.866737
2022-09-09T01:31:36.354Z,50.866718
2022-09-09T01:32:36.340Z,50.866741
2022-09-09T01:33:36.344Z,50.866806
2022-09-09T01:34:36.327Z,50.866840
2022-09-09T01:35:36.305Z,50.866840
2022-09-09T01:36:37.314Z,50.866791
2022-09-09T01:37:36.303Z,50.866802
2022-09-09T01:38:36.484Z,50.866821
2022-09-09T01:39:36.394Z,50.866829
2022-09-09T01:40:36.279Z,50.866737
2022-09-09T01:41:36.271Z,50.866711
2022-09-09T01:42:36.260Z,50.866776
2022-09-09T01:43:36.272Z,50.866783
2022-09-09T01:44:36.256Z,50.866798
2022-09-09T01:45:36.296Z,50.866798
2022-09-09T01:46:36.234Z,50.866798
2022-09-09T01:47:36.232Z,50.866745
2022-09-09T01:48:36.257Z,50.866768
2022-09-09T01:49:36.211Z,50.866676
2022-09-09T01:50:36.196Z,50.866680
2022-09-09T01:51:36.196Z,50.866703
2022-09-09T01:52:36.180Z,50.866714
2022-09-09T01:53:36.170Z,50.866711
2022-09-09T01:54:36.173Z,50.866722
2022-09-09T01:55:37.108Z,50.866676
2022-09-09T01:56:36.145Z,50.866596
2022-09-09T01:57:36.146Z,50.866619
2022-09-09T01:58:36.199Z,50.866638
2022-09-09T01:59:36.149Z,50.866650
2022-09-09T02:00:36.117Z,50.866680
2022-09-09T02:01:36.173Z,50.866711
2022-09-09T02:02:36.176Z,50.866714
2022-09-09T02:03:36.095Z,50.866791
2022-09-09T02:04:36.092Z,50.866810
2022-09-09T02:05:36.080Z,50.866756
2022-09-09T02:06:36.078Z,50.866695
2022-09-09T02:07:36.071Z,50.866726
2022-09-09T02:08:36.166Z,50.866764
2022-09-09T02:09:36.050Z,50.866795
2022-09-09T02:10:36.048Z,50.866692
2022-09-09T02:11:36.035Z,50.866875
2022-09-09T02:12:36.034Z,50.866856
2022-09-09T02:13:36.690Z,50.866898
2022-09-09T02:14:36.012Z,50.866753
2022-09-09T02:15:36.002Z,50.866806
2022-09-09T02:16:36.025Z,50.866787
2022-09-09T02:17:35.989Z,50.866753
2022-09-09T02:18:36.119Z,50.866776
2022-09-09T02:19:35.973Z,50.866730
2022-09-09T02:20:35.965Z,50.866718
2022-09-09T02:21:35.956Z,50.866741
2022-09-09T02:22:35.944Z,50.866798
2022-09-09T02:23:35.941Z,50.866661
2022-09-09T02:24:35.930Z,50.866676
2022-09-09T02:25:35.931Z,50.866791
2022-09-09T02:26:35.907Z,50.866756
2022-09-09T02:27:35.904Z,50.866722
2022-09-09T02:28:36.174Z,50.866745
2022-09-09T02:29:35.892Z,50.866745
2022-09-09T02:30:35.918Z,50.866779
2022-09-09T02:31:35.880Z,50.866783
2022-09-09T02:32:35.862Z,50.866756
2022-09-09T02:33:35.861Z,50.866806
2022-09-09T02:34:35.856Z,50.866734
2022-09-09T02:35:35.840Z,50.866734
2022-09-09T02:36:35.857Z,50.866768
2022-09-09T02:37:35.832Z,50.866753
2022-09-09T02:38:36.097Z,50.866779
2022-09-09T02:39:35.884Z,50.866810
2022-09-09T02:40:37.704Z,50.866791
2022-09-09T02:41:35.792Z,50.866810
2022-09-09T02:42:35.782Z,50.866806
2022-09-09T02:43:35.795Z,50.866810
2022-09-09T02:44:35.767Z,50.866791
2022-09-09T02:45:35.809Z,50.866875
2022-09-09T02:46:35.756Z,50.866756
2022-09-09T02:47:35.755Z,50.866768
2022-09-09T02:48:35.887Z,50.866840
2022-09-09T02:49:35.730Z,50.866875
2022-09-09T02:50:35.735Z,50.866783
2022-09-09T02:51:35.713Z,50.866837
2022-09-09T02:52:35.707Z,50.866665
2022-09-09T02:53:35.701Z,50.866631
2022-09-09T02:54:35.690Z,50.866737
2022-09-09T02:55:35.691Z,50.866791
2022-09-09T02:56:35.717Z,50.866879
2022-09-09T02:57:35.663Z,50.866879
2022-09-09T02:58:35.730Z,50.866779
2022-09-09T02:59:35.651Z,50.866787
2022-09-09T03:00:35.641Z,50.866745
2022-09-09T03:01:35.679Z,50.866596
2022-09-09T03:02:35.684Z,50.866825
2022-09-09T03:03:35.616Z,50.866959
2022-09-09T03:04:35.611Z,50.866890
2022-09-09T03:05:35.612Z,50.866833
2022-09-09T03:06:35.600Z,50.866814
2022-09-09T03:07:35.587Z,50.866901
2022-09-09T03:08:35.690Z,50.866951
2022-09-09T03:09:35.573Z,50.866882
2022-09-09T03:10:35.571Z,50.866840
2022-09-09T03:11:35.573Z,50.866741
2022-09-09T03:12:35.549Z,50.866657
2022-09-09T03:13:35.545Z,50.866833
2022-09-09T03:14:35.536Z,50.866669
2022-09-09T03:15:35.529Z,50.866653
2022-09-09T03:16:35.704Z,50.866768
2022-09-09T03:17:35.521Z,50.866779
2022-09-09T03:18:35.622Z,50.866787
2022-09-09T03:19:35.501Z,50.866669
2022-09-09T03:20:35.490Z,50.866653
2022-09-09T03:21:35.483Z,50.866650
2022-09-09T03:22:35.485Z,50.866512
2022-09-09T03:23:35.474Z,50.866741
2022-09-09T03:24:35.461Z,50.866875
2022-09-09T03:25:35.458Z,50.866817
2022-09-09T03:26:35.451Z,50.866764
2022-09-09T03:27:35.453Z,50.866821
2022-09-09T03:28:35.622Z,50.866905
2022-09-09T03:29:35.424Z,50.867081
2022-09-09T03:30:35.419Z,50.867279
2022-09-09T03:31:35.445Z,50.867077
2022-09-09T03:32:35.405Z,50.867062
2022-09-09T03:33:35.390Z,50.866985
2022-09-09T03:34:35.403Z,50.866909
2022-09-09T03:35:35.383Z,50.866776
2022-09-09T03:36:35.401Z,50.866737
2022-09-09T03:37:35.363Z,50.866714
2022-09-09T03:38:35.420Z,50.866741
2022-09-09T03:39:35.377Z,50.866852
2022-09-09T03:40:35.337Z,50.866913
2022-09-09T03:41:35.323Z,50.866745
2022-09-09T03:42:35.328Z,50.866806
2022-09-09T03:43:35.306Z,50.866894
2022-09-09T03:44:35.311Z,50.866699
2022-09-09T03:45:35.370Z,50.866692
2022-09-09T03:46:35.286Z,50.866714
2022-09-09T03:47:35.278Z,50.866879
2022-09-09T03:48:35.353Z,50.866760
2022-09-09T03:49:35.265Z,50.866909
2022-09-09T03:50:35.271Z,50.867039
2022-09-09T03:51:35.731Z,50.867027
2022-09-09T03:52:35.239Z,50.867146
2022-09-09T03:53:35.236Z,50.867027
2022-09-09T03:54:35.218Z,50.866787
2022-09-09T03:55:35.217Z,50.866791
2022-09-09T03:56:35.220Z,50.866741
2022-09-09T03:57:35.196Z,50.866871
2022-09-09T03:58:35.330Z,50.866791
2022-09-09T03:59:35.183Z,50.867020
2022-09-09T04:00:35.179Z,50.866959
2022-09-09T04:01:35.247Z,50.866871
2022-09-09T04:02:35.318Z,50.866848
2022-09-09T04:03:35.164Z,50.866837
2022-09-09T04:04:35.145Z,50.866844
2022-09-09T04:05:35.132Z,50.866840
2022-09-09T04:06:35.138Z,50.866863
2022-09-09T04:07:35.115Z,50.866871
2022-09-09T04:08:35.407Z,50.866833
2022-09-09T04:09:35.105Z,50.866840
2022-09-09T04:10:35.099Z,50.866856
2022-09-09T04:11:35.085Z,50.866837
2022-09-09T04:12:35.078Z,50.866856
2022-09-09T04:13:35.077Z,50.866852
2022-09-09T04:14:35.066Z,50.866859
2022-09-09T04:15:35.058Z,50.866924
2022-09-09T04:16:35.163Z,50.866871
2022-09-09T04:17:35.033Z,50.866928
2022-09-09T04:18:35.199Z,50.866901
2022-09-09T04:19:35.031Z,50.866913
2022-09-09T04:20:35.023Z,50.866871
2022-09-09T04:21:35.004Z,50.866905
2022-09-09T04:22:35.003Z,50.866936
2022-09-09T04:23:34.998Z,50.866917
2022-09-09T04:24:34.991Z,50.866940
2022-09-09T04:25:34.970Z,50.866978
2022-09-09T04:26:34.969Z,50.866985
2022-09-09T04:27:34.959Z,50.866947
2022-09-09T04:28:35.033Z,50.866970
2022-09-09T04:29:34.947Z,50.867031
2022-09-09T04:30:34.929Z,50.867016
2022-09-09T04:31:34.955Z,50.866955
2022-09-09T04:32:34.920Z,50.866997
2022-09-09T04:33:39.425Z,50.866932
2022-09-09T04:34:36.902Z,50.866890
2022-09-09T04:35:34.897Z,50.866909
2022-09-09T04:36:34.905Z,50.866890
2022-09-09T04:37:34.879Z,50.866879
2022-09-09T04:38:34.870Z,50.866879
2022-09-09T04:39:34.880Z,50.866898
2022-09-09T04:40:34.856Z,50.866959
2022-09-09T04:41:34.860Z,50.866966
2022-09-09T04:42:34.853Z,50.866940
2022-09-09T04:43:34.830Z,50.866890
2022-09-09T04:44:34.823Z,50.866936
2022-09-09T04:45:34.902Z,50.866974
2022-09-09T04:46:34.827Z,50.866867
2022-09-09T04:47:34.802Z,50.866840
2022-09-09T04:48:34.845Z,50.866863
2022-09-09T04:49:34.788Z,50.866871
2022-09-09T04:50:34.775Z,50.866886
2022-09-09T04:51:34.775Z,50.866886
2022-09-09T04:52:34.755Z,50.866894
2022-09-09T04:53:34.747Z,50.866848
2022-09-09T04:54:34.744Z,50.866837
2022-09-09T04:55:34.738Z,50.866848
2022-09-09T04:56:34.734Z,50.866852
2022-09-09T04:57:34.712Z,50.866848
2022-09-09T04:58:34.838Z,50.866882
2022-09-09T04:59:34.704Z,50.866943
2022-09-09T05:00:34.762Z,50.866951
2022-09-09T05:01:34.696Z,50.866947
2022-09-09T05:02:34.704Z,50.866985
2022-09-09T05:03:34.712Z,50.866898
2022-09-09T05:04:34.657Z,50.866852
2022-09-09T05:05:34.650Z,50.866875
2022-09-09T05:06:34.650Z,50.866905
2022-09-09T05:07:34.646Z,50.866894
2022-09-09T05:08:34.739Z,50.866867
2022-09-09T05:09:34.651Z,50.866970
2022-09-09T05:10:34.636Z,50.866940
2022-09-09T05:11:34.603Z,50.866890
2022-09-09T05:12:34.594Z,50.866829
2022-09-09T05:13:38.332Z,50.866833
2022-09-09T05:14:35.572Z,50.866859
2022-09-09T05:15:34.607Z,50.866879
2022-09-09T05:16:34.687Z,50.866852
2022-09-09T05:17:34.549Z,50.866936
2022-09-09T05:18:34.583Z,50.866966
2022-09-09T05:19:35.171Z,50.866901
2022-09-09T05:20:34.535Z,50.867008
2022-09-09T05:21:34.530Z,50.867020
2022-09-09T05:22:34.508Z,50.866909
2022-09-09T05:23:34.505Z,50.866978
2022-09-09T05:24:34.491Z,50.866802
2022-09-09T05:25:34.500Z,50.867027
2022-09-09T05:26:34.489Z,50.866940
2022-09-09T05:27:34.467Z,50.866917
2022-09-09T05:28:34.514Z,50.866852
2022-09-09T05:29:34.486Z,50.866573
2022-09-09T05:30:34.454Z,50.866726
2022-09-09T05:31:34.481Z,50.866722
2022-09-09T05:32:34.425Z,50.866688
2022-09-09T05:33:34.423Z,50.866810
2022-09-09T05:34:34.444Z,50.866901
2022-09-09T05:35:34.414Z,50.866856
2022-09-09T05:36:34.410Z,50.866734
2022-09-09T05:37:34.392Z,50.866783
2022-09-09T05:38:34.520Z,50.866871
2022-09-09T05:39:35.257Z,50.866875
2022-09-09T05:40:34.364Z,50.866848
2022-09-09T05:41:34.366Z,50.866817
2022-09-09T05:42:34.347Z,50.866829
2022-09-09T05:43:34.341Z,50.866814
2022-09-09T05:44:34.376Z,50.866852
2022-09-09T05:45:34.338Z,50.866821
2022-09-09T05:46:34.361Z,50.866825
2022-09-09T05:47:34.309Z,50.866829
2022-09-09T05:48:34.368Z,50.866852
2022-09-09T05:49:35.303Z,50.866821
2022-09-09T05:50:34.289Z,50.866806
2022-09-09T05:51:34.300Z,50.866825
2022-09-09T05:52:34.290Z,50.866810
2022-09-09T05:53:34.260Z,50.866928
2022-09-09T05:54:34.256Z,50.866821
2022-09-09T05:55:34.253Z,50.866871
2022-09-09T05:56:34.249Z,50.866905
2022-09-09T05:57:34.230Z,50.866802
2022-09-09T05:58:34.273Z,50.866810
2022-09-09T05:59:34.220Z,50.866764
2022-09-09T06:00:34.205Z,50.866749
2022-09-09T06:01:34.266Z,50.866787
2022-09-09T06:02:34.307Z,50.866776
2022-09-09T06:03:34.181Z,50.866730
2022-09-09T06:04:34.177Z,50.866745
2022-09-09T06:05:34.167Z,50.866837
2022-09-09T06:06:34.170Z,50.866825
2022-09-09T06:07:34.149Z,50.866802
2022-09-09T06:08:34.164Z,50.866749
2022-09-09T06:09:34.165Z,50.866776
2022-09-09T06:10:34.134Z,50.866699
2022-09-09T06:11:34.148Z,50.866711
2022-09-09T06:12:34.110Z,50.866707
2022-09-09T06:13:34.107Z,50.866707
2022-09-09T06:14:34.754Z,50.866722
2022-09-09T06:15:34.088Z,50.866726
2022-09-09T06:16:34.141Z,50.866802
2022-09-09T06:17:34.085Z,50.866833
2022-09-09T06:18:34.124Z,50.866795
2022-09-09T06:19:34.054Z,50.866756
2022-09-09T06:20:34.041Z,50.866695
2022-09-09T06:21:34.036Z,50.866695
2022-09-09T06:22:34.043Z,50.866730
2022-09-09T06:23:34.037Z,50.866749
2022-09-09T06:24:34.040Z,50.866730
2022-09-09T06:25:34.010Z,50.866718
2022-09-09T06:26:34.038Z,50.866741
2022-09-09T06:27:33.995Z,50.866722
2022-09-09T06:28:34.015Z,50.866669
2022-09-09T06:29:33.967Z,50.866673
2022-09-09T06:30:33.966Z,50.866695
2022-09-09T06:31:34.016Z,50.866703
2022-09-09T06:32:33.955Z,50.866730
2022-09-09T06:33:33.949Z,50.866718
2022-09-09T06:34:33.931Z,50.866642
2022-09-09T06:35:33.929Z,50.866676
2022-09-09T06:36:33.922Z,50.866680
2022-09-09T06:37:33.935Z,50.866726
2022-09-09T06:38:33.925Z,50.866745
2022-09-09T06:39:33.954Z,50.866680
2022-09-09T06:40:33.893Z,50.866764
2022-09-09T06:41:33.881Z,50.866802
2022-09-09T06:42:33.870Z,50.866661
2022-09-09T06:43:33.904Z,50.866730
2022-09-09T06:44:35.482Z,50.866596
2022-09-09T06:45:34.862Z,50.866688
2022-09-09T06:46:33.872Z,50.866760
2022-09-09T06:47:33.912Z,50.866737
2022-09-09T06:48:33.839Z,50.866741
2022-09-09T06:49:33.848Z,50.866756
2022-09-09T06:50:33.807Z,50.866787
2022-09-09T06:51:33.803Z,50.866802
2022-09-09T06:52:33.791Z,50.866875
2022-09-09T06:53:33.789Z,50.866802
2022-09-09T06:54:33.777Z,50.866833
2022-09-09T06:55:33.779Z,50.866901
2022-09-09T06:56:33.805Z,50.866859
2022-09-09T06:57:37.261Z,50.866875
2022-09-09T06:58:34.802Z,50.866924
2022-09-09T06:59:33.762Z,50.866955
2022-09-09T07:00:33.782Z,50.867012
2022-09-09T07:01:33.783Z,50.867012
2022-09-09T07:02:33.724Z,50.866833
2022-09-09T07:03:33.715Z,50.866737
2022-09-09T07:04:33.704Z,50.866791
2022-09-09T07:05:33.707Z,50.866898
2022-09-09T07:06:33.689Z,50.867161
2022-09-09T07:07:33.683Z,50.867149
2022-09-09T07:08:33.740Z,50.867149
2022-09-09T07:09:33.683Z,50.867149
2022-09-09T07:10:33.654Z,50.867004
2022-09-09T07:11:33.646Z,50.867142
2022-09-09T07:12:33.647Z,50.867210
2022-09-09T07:13:33.631Z,50.867210
2022-09-09T07:14:33.636Z,50.867210
2022-09-09T07:15:33.618Z,50.867210
2022-09-09T07:16:33.647Z,50.867210
2022-09-09T07:17:34.201Z,50.866852
2022-09-09T07:18:33.600Z,50.866714
2022-09-09T07:19:33.586Z,50.866615
2022-09-09T07:20:33.571Z,50.866669
2022-09-09T07:21:33.598Z,50.866669
2022-09-09T07:22:33.559Z,50.866592
2022-09-09T07:23:36.319Z,50.866676
2022-09-09T07:24:34.541Z,50.866623
2022-09-09T07:25:33.529Z,50.866562
2022-09-09T07:26:33.528Z,50.866646
2022-09-09T07:27:33.561Z,50.866711
2022-09-09T07:28:33.570Z,50.866711
2022-09-09T07:29:33.505Z,50.866711
2022-09-09T07:30:40.440Z,50.866684
2022-09-09T07:31:33.513Z,50.866600
2022-09-09T07:32:33.481Z,50.866570
2022-09-09T07:33:33.535Z,50.866451
2022-09-09T07:34:33.463Z,50.866680
2022-09-09T07:35:33.450Z,50.866734
2022-09-09T07:36:33.814Z,50.866680
2022-09-09T07:37:33.433Z,50.866608
2022-09-09T07:38:33.457Z,50.866722
2022-09-09T07:39:33.494Z,50.866734
2022-09-09T07:40:33.429Z,50.866772
2022-09-09T07:41:33.412Z,50.866829
2022-09-09T07:42:33.398Z,50.866810
2022-09-09T07:43:33.389Z,50.866737
2022-09-09T07:44:33.382Z,50.866745
2022-09-09T07:45:33.372Z,50.866737
2022-09-09T07:46:33.452Z,50.866783
2022-09-09T07:47:33.358Z,50.866817
2022-09-09T07:48:33.495Z,50.866787
2022-09-09T07:49:33.335Z,50.866779
2022-09-09T07:50:33.339Z,50.866810
2022-09-09T07:51:33.334Z,50.866730
2022-09-09T07:52:33.312Z,50.866722
2022-09-09T07:53:33.369Z,50.866737
2022-09-09T07:54:33.298Z,50.866737
2022-09-09T07:55:33.296Z,50.866680
2022-09-09T07:56:33.637Z,50.866676
2022-09-09T07:57:34.270Z,50.866703
2022-09-09T07:58:38.195Z,50.866676
2022-09-09T07:59:35.398Z,50.866692
2022-09-09T08:00:33.245Z,50.866657
2022-09-09T08:01:33.329Z,50.866676
2022-09-09T08:02:33.242Z,50.866688
2022-09-09T08:03:33.725Z,50.866653
2022-09-09T08:04:33.217Z,50.866642
2022-09-09T08:05:33.208Z,50.866692
2022-09-09T08:06:33.199Z,50.866650
2022-09-09T08:07:33.199Z,50.866611
2022-09-09T08:08:33.187Z,50.866634
2022-09-09T08:09:33.187Z,50.866627
2022-09-09T08:10:33.166Z,50.866711
2022-09-09T08:11:38.139Z,50.866650
2022-09-09T08:12:36.385Z,50.866608
2022-09-09T08:13:33.212Z,50.866592
2022-09-09T08:14:33.143Z,50.866634
2022-09-09T08:15:33.123Z,50.866615
2022-09-09T08:16:33.125Z,50.866673
2022-09-09T08:17:33.120Z,50.866776
2022-09-09T08:18:33.111Z,50.866695
2022-09-09T08:19:33.100Z,50.866722
2022-09-09T08:20:33.138Z,50.866764
2022-09-09T08:21:33.083Z,50.866650
2022-09-09T08:22:33.080Z,50.866604
2022-09-09T08:23:33.121Z,50.866428
2022-09-09T08:24:33.068Z,50.866413
2022-09-09T08:25:33.054Z,50.866497
2022-09-09T08:26:33.052Z,50.866566
2022-09-09T08:27:33.032Z,50.866608
2022-09-09T08:28:33.185Z,50.866657
2022-09-09T08:29:33.018Z,50.866562
2022-09-09T08:30:33.026Z,50.866520
2022-09-09T08:31:33.029Z,50.866463
2022-09-09T08:32:33.011Z,50.866337
2022-09-09T08:33:33.026Z,50.866413
2022-09-09T08:34:33.009Z,50.866322
2022-09-09T08:35:33.839Z,50.866299
2022-09-09T08:36:33.963Z,50.866428
2022-09-09T08:37:32.950Z,50.866360
2022-09-09T08:38:32.948Z,50.866493
2022-09-09T08:39:32.972Z,50.866531
2022-09-09T08:40:32.943Z,50.866508
2022-09-09T08:41:32.928Z,50.866409
2022-09-09T08:42:32.919Z,50.866337
2022-09-09T08:43:32.991Z,50.866497
2022-09-09T08:44:32.916Z,50.866478
2022-09-09T08:45:32.888Z,50.866512
2022-09-09T08:46:32.958Z,50.866501
2022-09-09T08:47:34.084Z,50.866375
2022-09-09T08:48:33.873Z,50.866470
2022-09-09T08:49:32.869Z,50.866394
2022-09-09T08:50:32.846Z,50.866547
2022-09-09T08:51:32.842Z,50.866573
2022-09-09T08:52:32.836Z,50.866611
2022-09-09T08:53:32.851Z,50.866646
2022-09-09T08:54:51.033Z,50.866600
2022-09-09T08:55:34.813Z,50.866451
2022-09-09T08:56:32.807Z,50.866501
2022-09-09T08:57:32.798Z,50.866741
2022-09-09T08:58:32.835Z,50.866795
2022-09-09T08:59:32.774Z,50.866848
2022-09-09T09:00:32.762Z,50.866829
2022-09-09T09:01:32.828Z,50.866829
2022-09-09T09:02:32.845Z,50.866714
2022-09-09T09:03:32.752Z,50.866756
2022-09-09T09:04:32.799Z,50.866592
2022-09-09T09:05:32.727Z,50.866753
2022-09-09T09:06:32.765Z,50.866734
2022-09-09T09:07:33.145Z,50.866730
2022-09-09T09:08:33.708Z,50.866642
2022-09-09T09:09:32.700Z,50.866718
2022-09-09T09:10:42.495Z,50.866783
2022-09-09T09:11:34.700Z,50.866779
2022-09-09T09:12:32.684Z,50.866734
2022-09-09T09:13:32.687Z,50.866566
2022-09-09T09:14:32.660Z,50.866726
2022-09-09T09:15:32.862Z,50.866756
2022-09-09T09:16:32.682Z,50.866730
2022-09-09T09:17:32.631Z,50.866753
2022-09-09T09:18:32.685Z,50.866764
2022-09-09T09:19:32.615Z,50.866749
2022-09-09T09:20:32.608Z,50.866783
2022-09-09T09:21:32.608Z,50.866898
2022-09-09T09:22:32.614Z,50.866936
2022-09-09T09:23:32.588Z,50.866879
2022-09-09T09:24:32.585Z,50.866795
2022-09-09T09:25:32.575Z,50.866905
2022-09-09T09:26:32.568Z,50.866821
2022-09-09T09:27:32.550Z,50.866856
2022-09-09T09:28:32.584Z,50.866844
2022-09-09T09:29:32.537Z,50.866825
2022-09-09T09:30:32.535Z,50.866894
2022-09-09T09:31:32.560Z,50.866875
2022-09-09T09:32:32.518Z,50.866859
2022-09-09T09:33:33.269Z,50.866856
2022-09-09T09:34:32.496Z,50.866924
2022-09-09T09:35:35.091Z,50.867039
2022-09-09T09:36:32.489Z,50.867027
2022-09-09T09:37:33.048Z,50.866890
2022-09-09T09:40:04.091Z,50.866768
2022-09-09T09:40:34.477Z,50.866695
2022-09-09T09:41:32.450Z,50.866783
2022-09-09T09:42:32.485Z,50.866608
2022-09-09T09:43:32.508Z,50.866806
2022-09-09T09:44:32.506Z,50.866821
2022-09-09T09:45:32.467Z,50.866802
2022-09-09T09:46:32.456Z,50.866798
2022-09-09T09:47:32.402Z,50.866791
2022-09-09T09:48:32.417Z,50.866768
2022-09-09T09:49:32.386Z,50.866779
2022-09-09T09:50:32.436Z,50.866779
2022-09-09T09:51:32.386Z,50.866768
2022-09-09T09:52:32.385Z,50.866814
2022-09-09T09:53:32.404Z,50.866859
2022-09-09T09:54:32.355Z,50.866898
2022-09-09T09:55:32.348Z,50.866856
2022-09-09T09:56:32.344Z,50.866882
2022-09-09T09:57:32.388Z,50.866943
2022-09-09T09:58:32.986Z,50.866879
2022-09-09T09:59:40.561Z,50.866814
2022-09-09T10:00:34.310Z,50.866749
2022-09-09T10:01:32.392Z,50.866814
2022-09-09T10:02:32.283Z,50.866814
2022-09-09T10:03:32.281Z,50.866814
2022-09-09T10:04:32.300Z,50.866863
2022-09-09T10:05:36.108Z,50.866806
2022-09-09T10:06:33.260Z,50.866764
2022-09-09T10:07:32.245Z,50.866810
2022-09-09T10:08:32.246Z,50.866856
2022-09-09T10:09:32.239Z,50.866806
2022-09-09T10:10:32.231Z,50.866840
2022-09-09T10:11:32.236Z,50.866840
2022-09-09T10:12:32.209Z,50.866806
2022-09-09T10:13:32.204Z,50.866791
2022-09-09T10:14:32.777Z,50.866734
2022-09-09T10:15:32.210Z,50.866760
2022-09-09T10:16:32.196Z,50.866768
2022-09-09T10:17:32.170Z,50.866776
2022-09-09T10:18:32.189Z,50.866810
2022-09-09T10:19:32.786Z,50.866844
2022-09-09T10:20:32.151Z,50.866798
2022-09-09T10:21:33.355Z,50.866779
2022-09-09T10:22:33.147Z,50.866768
2022-09-09T10:23:32.133Z,50.866806
2022-09-09T10:24:32.134Z,50.866776
2022-09-09T10:25:32.634Z,50.866749
2022-09-09T10:26:32.124Z,50.866798
2022-09-09T10:27:32.148Z,50.866753
2022-09-09T10:28:32.090Z,50.866737
2022-09-09T10:29:32.133Z,50.866692
2022-09-09T10:30:32.075Z,50.866745
2022-09-09T10:31:32.061Z,50.866665
2022-09-09T10:32:32.053Z,50.866638
2022-09-09T10:33:32.854Z,50.866718
2022-09-09T10:34:32.039Z,50.866764
2022-09-09T10:35:32.056Z,50.866749
2022-09-09T10:36:32.031Z,50.866764
2022-09-09T10:37:32.132Z,50.866840
2022-09-09T10:38:32.033Z,50.866756
2022-09-09T10:39:32.053Z,50.866695
2022-09-09T10:40:32.783Z,50.866631
2022-09-09T10:41:31.980Z,50.866726
2022-09-09T10:42:31.974Z,50.866772
2022-09-09T10:43:31.970Z,50.866901
2022-09-09T10:44:31.955Z,50.866768
2022-09-09T10:45:31.954Z,50.866676
2022-09-09T10:46:32.022Z,50.866718
2022-09-09T10:47:31.930Z,50.866798
2022-09-09T10:48:31.919Z,50.866817
2022-09-09T10:49:31.933Z,50.866627
2022-09-09T10:51:00.006Z,50.866741
2022-09-09T10:51:33.908Z,50.866638
2022-09-09T10:52:31.890Z,50.866634
2022-09-09T10:53:31.886Z,50.866608
2022-09-09T10:54:31.898Z,50.866875
2022-09-09T10:55:32.789Z,50.866783
2022-09-09T10:56:31.904Z,50.866745
2022-09-09T10:57:31.856Z,50.866825
2022-09-09T10:58:31.855Z,50.866886
2022-09-09T10:59:31.862Z,50.866787
2022-09-09T11:00:31.832Z,50.866920
2022-09-09T11:01:31.886Z,50.866901
2022-09-09T11:02:31.815Z,50.866863
2022-09-09T11:03:31.917Z,50.866978
2022-09-09T11:04:31.804Z,50.866943
2022-09-09T11:05:31.797Z,50.867035
2022-09-09T11:06:31.841Z,50.867004
2022-09-09T11:07:31.776Z,50.866890
2022-09-09T11:08:31.777Z,50.867039
2022-09-09T11:09:31.765Z,50.866867
2022-09-09T11:10:31.759Z,50.867050
2022-09-09T11:11:31.937Z,50.867069
2022-09-09T11:12:31.734Z,50.867172
2022-09-09T11:13:31.738Z,50.867016
2022-09-09T11:14:35.382Z,50.866959
2022-09-09T11:15:33.716Z,50.867043
2022-09-09T11:16:31.750Z,50.866867
2022-09-09T11:17:31.710Z,50.866982
2022-09-09T11:18:31.687Z,50.866924
2022-09-09T11:19:32.707Z,50.866940
2022-09-09T11:20:31.690Z,50.866898
2022-09-09T11:21:31.673Z,50.866894
2022-09-09T11:22:31.676Z,50.866989
2022-09-09T11:23:31.697Z,50.867008
2022-09-09T11:24:31.674Z,50.866997
2022-09-09T11:25:31.638Z,50.867058
2022-09-09T11:26:31.703Z,50.867149
2022-09-09T11:27:31.625Z,50.867176
2022-09-09T11:28:31.629Z,50.867123
2022-09-09T11:29:32.298Z,50.867184
2022-09-09T11:30:55.060Z,50.867092
2022-09-09T11:31:33.660Z,50.867115
2022-09-09T11:32:31.623Z,50.867226
2022-09-09T11:33:31.580Z,50.867336
2022-09-09T11:34:31.635Z,50.867374